Time;durP1;ratioP1;P1;durP2;ratioP2;P2;SDS_P1;SDS_P2;PMS_P1;PMS_P2;Temp;Humidity;BMP_temperature;BMP_pressure;BME280_temperature;BME280_humidity;BME280_pressure;Samples;Min_cycle;Max_cycle;Signal;HPM_P1;HPM_P2
2022/03/27 00:01:19;;;;;;;4.47;2.60;;;11.00;81.60;;;;;;5035440;28;20088;-59
2022/03/27 00:03:45;;;;;;;6.80;2.90;;;10.90;82.00;;;;;;5057127;28;20550;-58
2022/03/27 00:06:10;;;;;;;4.20;2.78;;;10.80;82.00;;;;;;5033120;28;20032;-58
2022/03/27 00:08:36;;;;;;;5.05;3.30;;;10.80;82.40;;;;;;5036446;28;20107;-59
2022/03/27 00:13:46;;;;;;;5.10;2.67;;;10.80;82.60;;;;;;5038808;28;20504;-58
2022/03/27 00:16:12;;;;;;;5.00;3.40;;;10.80;82.50;;;;;;5035512;28;20046;-58
2022/03/27 00:18:37;;;;;;;4.57;3.90;;;10.70;83.00;;;;;;5041038;28;20021;-58
2022/03/27 00:21:04;;;;;;;4.43;3.47;;;10.70;83.40;;;;;;5038415;28;20021;-58
2022/03/27 00:23:30;;;;;;;5.40;3.95;;;10.60;83.50;;;;;;5032913;28;20056;-58
2022/03/27 00:25:56;;;;;;;5.93;3.92;;;10.60;84.00;;;;;;5038370;28;20389;-59
2022/03/27 00:28:22;;;;;;;6.20;3.97;;;10.60;84.60;;;;;;5038155;28;20028;-59
2022/03/27 00:30:47;;;;;;;6.25;4.25;;;10.50;85.40;;;;;;5035521;28;20438;-58
2022/03/27 00:33:14;;;;;;;8.10;4.85;;;10.40;86.30;;;;;;5032532;28;20026;-58
2022/03/27 00:35:39;;;;;;;5.50;4.10;;;10.30;87.00;;;;;;5031180;28;20102;-58
2022/03/27 00:38:07;;;;;;;6.72;4.47;;;10.30;87.10;;;;;;5043542;28;20048;-58
2022/03/27 00:40:33;;;;;;;5.72;4.75;;;10.20;88.00;;;;;;5043255;28;20025;-58
2022/03/27 00:42:59;;;;;;;6.45;4.70;;;10.10;88.40;;;;;;5033373;28;20469;-58
2022/03/27 00:45:24;;;;;;;6.82;5.38;;;10.00;88.80;;;;;;5038122;28;20151;-58
2022/03/27 00:47:50;;;;;;;6.78;5.18;;;10.00;89.70;;;;;;5032554;28;20025;-58
2022/03/27 00:50:15;;;;;;;6.88;5.07;;;9.90;90.10;;;;;;5032901;28;20026;-58
2022/03/27 00:52:41;;;;;;;8.48;5.13;;;9.90;90.30;;;;;;5038541;28;20033;-58
2022/03/27 00:55:07;;;;;;;6.25;5.15;;;9.90;90.50;;;;;;5043817;28;20087;-58
2022/03/27 00:57:32;;;;;;;7.65;5.85;;;9.80;90.60;;;;;;5036144;28;20463;-58
2022/03/27 00:59:58;;;;;;;9.57;6.13;;;9.80;91.00;;;;;;5037164;28;20152;-58
2022/03/27 01:02:25;;;;;;;6.95;5.50;;;9.80;91.30;;;;;;5042226;28;20036;-58
2022/03/27 01:04:55;;;;;;;8.02;5.35;;;9.80;91.40;;;;;;5052869;28;20108;-58
2022/03/27 01:07:20;;;;;;;6.80;5.07;;;9.80;91.40;;;;;;5032165;28;20036;-58
2022/03/27 01:09:47;;;;;;;8.15;5.72;;;9.80;91.60;;;;;;5030574;28;20029;-58
2022/03/27 01:12:20;;;;;;;7.22;5.43;;;9.80;91.70;;;;;;5031758;28;20476;-58
2022/03/27 01:14:46;;;;;;;7.93;5.78;;;9.80;92.00;;;;;;5035900;28;20048;-58
2022/03/27 01:17:17;;;;;;;8.15;6.13;;;9.80;92.30;;;;;;5040009;28;20025;-58
2022/03/27 01:19:46;;;;;;;8.45;5.93;;;9.80;92.60;;;;;;5039327;28;20505;-58
2022/03/27 01:22:13;;;;;;;7.77;5.60;;;9.80;92.80;;;;;;5039789;28;20032;-58
2022/03/27 01:24:39;;;;;;;7.70;5.75;;;9.80;93.00;;;;;;5028900;28;20021;-58
2022/03/27 01:27:06;;;;;;;6.57;5.20;;;9.80;93.10;;;;;;5034333;28;20024;-58
2022/03/27 01:29:31;;;;;;;6.93;5.85;;;9.80;93.10;;;;;;5039845;28;20111;-58
2022/03/27 01:31:58;;;;;;;7.45;5.57;;;9.90;93.30;;;;;;5034241;28;20188;-58
2022/03/27 01:34:23;;;;;;;8.35;5.50;;;9.90;93.30;;;;;;5031494;28;20029;-58
2022/03/27 01:36:49;;;;;;;7.72;5.97;;;9.90;93.70;;;;;;5042503;28;20032;-58
2022/03/27 01:39:16;;;;;;;7.05;5.60;;;9.90;93.60;;;;;;5031658;28;20707;-59
2022/03/27 01:41:42;;;;;;;8.68;6.18;;;9.90;93.60;;;;;;5037299;28;20021;-59
2022/03/27 01:44:11;;;;;;;7.43;6.25;;;9.90;93.80;;;;;;5038942;28;20047;-58
2022/03/27 01:46:39;;;;;;;8.70;5.97;;;9.90;93.80;;;;;;5038681;28;20048;-58
2022/03/27 01:49:07;;;;;;;8.30;5.95;;;9.90;93.80;;;;;;5036010;28;20021;-58
2022/03/27 01:51:34;;;;;;;7.07;6.30;;;9.90;93.80;;;;;;5036527;28;20127;-58
2022/03/27 01:54:00;;;;;;;7.53;6.03;;;9.90;93.90;;;;;;5042860;28;20036;-59
2022/03/27 01:56:26;;;;;;;7.43;6.53;;;10.00;93.90;;;;;;5032902;28;20500;-59
2022/03/27 01:58:52;;;;;;;8.00;7.20;;;10.00;93.90;;;;;;5032513;28;20020;-59
2022/03/27 02:01:19;;;;;;;9.07;7.15;;;10.00;94.20;;;;;;5030420;28;20468;-58
2022/03/27 02:03:45;;;;;;;11.15;7.78;;;9.90;94.30;;;;;;5041235;28;20107;-58
2022/03/27 02:06:12;;;;;;;9.63;7.90;;;9.90;94.40;;;;;;5031023;28;20045;-58
2022/03/27 02:08:37;;;;;;;9.18;7.88;;;9.90;94.60;;;;;;5037237;28;20029;-58
2022/03/27 02:11:03;;;;;;;10.35;7.72;;;9.90;94.60;;;;;;5041217;28;20033;-59
2022/03/27 02:13:29;;;;;;;9.02;7.50;;;9.80;95.00;;;;;;5033789;28;20030;-58
2022/03/27 02:15:57;;;;;;;10.23;7.68;;;9.80;94.80;;;;;;5036020;28;20042;-58
2022/03/27 02:18:28;;;;;;;12.70;9.38;;;9.80;94.90;;;;;;5035189;28;20486;-58
2022/03/27 02:20:54;;;;;;;10.07;8.48;;;9.70;95.20;;;;;;5036762;28;20021;-58
2022/03/27 02:23:21;;;;;;;10.60;8.40;;;9.80;95.30;;;;;;5039824;28;20102;-58
2022/03/27 02:25:47;;;;;;;9.35;7.97;;;9.70;95.40;;;;;;5039861;28;20021;-58
2022/03/27 02:28:12;;;;;;;8.43;6.90;;;9.70;95.40;;;;;;5037103;28;20044;-59
2022/03/27 02:30:38;;;;;;;9.43;8.18;;;9.70;95.40;;;;;;5041857;28;20028;-59
2022/03/27 02:33:04;;;;;;;9.00;8.10;;;9.70;95.50;;;;;;5037596;28;20029;-59
2022/03/27 02:35:29;;;;;;;9.40;7.65;;;9.70;95.40;;;;;;5042634;28;20054;-58
2022/03/27 02:37:55;;;;;;;8.32;7.32;;;9.70;95.40;;;;;;5035131;28;20517;-59
2022/03/27 02:40:20;;;;;;;12.65;10.77;;;9.80;95.40;;;;;;5041124;28;20207;-58
2022/03/27 02:42:46;;;;;;;11.70;9.77;;;9.70;95.60;;;;;;5046433;28;20130;-58
2022/03/27 02:45:11;;;;;;;11.77;10.00;;;9.70;95.70;;;;;;5040783;28;20590;-59
2022/03/27 02:47:37;;;;;;;11.68;8.57;;;9.70;95.70;;;;;;5046616;28;20021;-59
2022/03/27 02:50:04;;;;;;;8.95;7.82;;;9.70;95.60;;;;;;5038209;28;20489;-58
2022/03/27 02:52:30;;;;;;;8.07;7.07;;;9.80;95.50;;;;;;5037938;28;20017;-58
2022/03/27 02:54:56;;;;;;;9.43;7.82;;;9.80;95.30;;;;;;5036983;28;20035;-59
2022/03/27 02:57:21;;;;;;;10.27;8.75;;;9.90;95.20;;;;;;5036643;28;20108;-58
2022/03/27 02:59:47;;;;;;;10.90;9.55;;;9.90;95.10;;;;;;5034751;28;20421;-58
2022/03/27 03:02:13;;;;;;;11.68;9.55;;;9.90;95.10;;;;;;5029928;28;20179;-58
2022/03/27 03:04:39;;;;;;;9.77;8.60;;;10.00;95.10;;;;;;5039591;28;20029;-58
2022/03/27 03:07:05;;;;;;;9.65;8.63;;;10.00;95.10;;;;;;5039832;28;20044;-58
2022/03/27 03:09:31;;;;;;;10.45;9.05;;;10.00;95.00;;;;;;5036930;28;20120;-58
2022/03/27 03:11:56;;;;;;;11.40;10.02;;;10.00;95.10;;;;;;5039497;28;20279;-58
2022/03/27 03:14:22;;;;;;;13.30;8.90;;;9.90;95.10;;;;;;5035528;28;20060;-58
2022/03/27 03:16:49;;;;;;;9.63;8.55;;;9.90;95.10;;;;;;5043091;28;20469;-58
2022/03/27 03:19:15;;;;;;;9.98;8.73;;;9.90;95.10;;;;;;5036871;28;20040;-58
2022/03/27 03:21:41;;;;;;;11.50;9.48;;;9.90;95.20;;;;;;5033941;28;20385;-58
2022/03/27 03:24:07;;;;;;;14.00;11.02;;;9.90;95.20;;;;;;5033826;28;20096;-58
2022/03/27 03:26:33;;;;;;;14.35;10.63;;;9.90;95.30;;;;;;5038479;28;20034;-58
2022/03/27 03:28:59;;;;;;;11.63;9.57;;;9.90;95.30;;;;;;5033279;28;20028;-58
2022/03/27 03:31:24;;;;;;;10.45;8.80;;;9.90;95.30;;;;;;5037201;28;20339;-58
2022/03/27 03:33:50;;;;;;;10.73;9.10;;;9.90;95.20;;;;;;5036152;28;20017;-58
2022/03/27 03:36:15;;;;;;;12.05;9.88;;;9.90;95.10;;;;;;5036524;28;20156;-58
2022/03/27 03:38:41;;;;;;;11.60;10.25;;;9.90;95.20;;;;;;5034582;28;20478;-58
2022/03/27 03:41:08;;;;;;;9.88;8.48;;;9.80;95.30;;;;;;5033587;28;20512;-58
2022/03/27 03:43:37;;;;;;;10.32;8.75;;;9.80;95.20;;;;;;5040938;28;20024;-58
2022/03/27 03:46:03;;;;;;;10.43;9.02;;;9.90;95.10;;;;;;5037601;28;20102;-59
2022/03/27 03:48:29;;;;;;;12.13;9.43;;;9.80;95.10;;;;;;5040252;28;20029;-58
2022/03/27 03:50:54;;;;;;;11.95;10.20;;;9.80;95.10;;;;;;5029277;28;20049;-58
2022/03/27 03:53:21;;;;;;;10.77;9.25;;;9.80;95.20;;;;;;5039028;28;20029;-58
2022/03/27 03:55:46;;;;;;;11.35;9.73;;;9.70;95.20;;;;;;5036544;28;20468;-58
2022/03/27 03:58:12;;;;;;;12.38;10.07;;;9.60;95.30;;;;;;5038710;28;20025;-58
2022/03/27 04:00:37;;;;;;;11.13;9.07;;;9.60;95.40;;;;;;5041733;28;20463;-58
2022/03/27 04:03:03;;;;;;;12.13;9.75;;;9.50;95.50;;;;;;5035934;28;20438;-58
2022/03/27 04:05:28;;;;;;;11.35;9.27;;;9.50;95.60;;;;;;5038565;28;20032;-58
2022/03/27 04:07:54;;;;;;;14.20;10.35;;;9.50;95.60;;;;;;5034513;28;20018;-58
2022/03/27 04:10:20;;;;;;;12.25;10.73;;;9.50;95.60;;;;;;5034455;28;20505;-58
2022/03/27 04:12:45;;;;;;;12.07;10.45;;;9.50;95.60;;;;;;5041279;28;20029;-59
2022/03/27 04:15:11;;;;;;;12.27;9.27;;;9.50;95.60;;;;;;5040710;28;20056;-58
2022/03/27 04:17:48;;;;;;;11.77;9.20;;;9.50;95.60;;;;;;5038269;28;20025;-58
2022/03/27 04:20:14;;;;;;;12.52;9.57;;;9.50;95.50;;;;;;5035375;28;20420;-58
2022/03/27 04:22:41;;;;;;;13.07;10.52;;;9.50;95.60;;;;;;5035712;28;20029;-58
2022/03/27 04:25:07;;;;;;;11.20;9.15;;;9.50;95.90;;;;;;5042763;28;20485;-58
2022/03/27 04:27:33;;;;;;;12.68;10.10;;;9.50;95.60;;;;;;5038961;28;20112;-58
2022/03/27 04:29:58;;;;;;;10.05;8.13;;;9.50;95.60;;;;;;5038546;28;20024;-58
2022/03/27 04:32:24;;;;;;;12.63;9.00;;;9.50;95.60;;;;;;5032846;28;20087;-58
2022/03/27 04:34:50;;;;;;;14.32;11.10;;;9.40;95.50;;;;;;5035543;28;20060;-58
2022/03/27 04:37:16;;;;;;;16.02;11.02;;;9.40;95.40;;;;;;5017356;28;20021;-58
2022/03/27 04:39:42;;;;;;;14.00;10.55;;;9.30;95.40;;;;;;5036388;28;20021;-58
2022/03/27 04:42:11;;;;;;;15.93;10.45;;;9.30;95.40;;;;;;5035452;28;20044;-58
2022/03/27 04:44:36;;;;;;;17.08;11.30;;;9.30;95.40;;;;;;5029391;28;20021;-58
2022/03/27 04:47:02;;;;;;;14.88;10.30;;;9.20;95.40;;;;;;5033773;28;20044;-59
2022/03/27 04:49:28;;;;;;;13.60;8.30;;;9.20;95.40;;;;;;5043891;28;20029;-58
2022/03/27 04:51:53;;;;;;;14.27;9.80;;;9.20;95.40;;;;;;5038490;28;20025;-58
2022/03/27 04:54:19;;;;;;;14.18;9.63;;;9.20;95.30;;;;;;5036791;28;20031;-58
2022/03/27 04:56:44;;;;;;;17.55;10.55;;;9.20;95.20;;;;;;5031913;28;20116;-58
2022/03/27 04:59:10;;;;;;;14.23;9.60;;;9.10;95.20;;;;;;5033163;28;20104;-58
2022/03/27 05:01:36;;;;;;;15.13;10.70;;;9.10;95.20;;;;;;5033233;28;20038;-58
2022/03/27 05:04:02;;;;;;;18.70;12.38;;;9.10;95.30;;;;;;5033098;28;20041;-58
2022/03/27 05:06:29;;;;;;;21.05;13.52;;;9.00;95.40;;;;;;5033347;28;20029;-58
2022/03/27 05:08:58;;;;;;;19.70;12.25;;;9.00;95.50;;;;;;5033130;28;20033;-58
2022/03/27 05:11:25;;;;;;;21.58;13.13;;;9.00;95.50;;;;;;5033091;28;20413;-58
2022/03/27 05:13:50;;;;;;;19.45;12.15;;;9.00;95.50;;;;;;5048379;28;20037;-58
2022/03/27 05:16:16;;;;;;;21.17;13.30;;;8.90;95.50;;;;;;5032731;28;20131;-58
2022/03/27 05:18:41;;;;;;;23.20;13.07;;;8.90;95.60;;;;;;5033011;28;20488;-58
2022/03/27 05:21:06;;;;;;;19.77;13.35;;;8.90;95.70;;;;;;5032810;28;20033;-58
2022/03/27 05:23:33;;;;;;;21.27;13.35;;;8.90;95.70;;;;;;5032662;28;20486;-59
2022/03/27 05:26:00;;;;;;;20.45;12.88;;;8.80;96.00;;;;;;5032639;28;20056;-58
2022/03/27 05:28:25;;;;;;;17.98;11.38;;;8.90;95.80;;;;;;5032919;28;20037;-58
2022/03/27 05:30:52;;;;;;;18.52;11.73;;;8.90;95.70;;;;;;5033018;28;20025;-59
2022/03/27 05:33:18;;;;;;;18.08;11.65;;;8.90;95.60;;;;;;5032546;28;20473;-58
2022/03/27 05:35:44;;;;;;;19.63;12.10;;;8.90;95.60;;;;;;5032676;28;20110;-58
2022/03/27 05:38:10;;;;;;;18.73;11.68;;;8.90;95.50;;;;;;5032674;28;20028;-58
2022/03/27 05:40:36;;;;;;;19.70;12.25;;;8.90;95.50;;;;;;5047938;28;20025;-58
2022/03/27 05:43:02;;;;;;;18.58;11.77;;;8.90;95.50;;;;;;5032327;28;20477;-58
2022/03/27 05:45:27;;;;;;;21.38;12.57;;;8.90;95.50;;;;;;5047383;28;20036;-58
2022/03/27 05:47:53;;;;;;;19.38;11.70;;;8.90;95.50;;;;;;5031531;28;20021;-58
2022/03/27 05:50:22;;;;;;;19.30;11.60;;;8.90;95.50;;;;;;5032064;28;20084;-58
2022/03/27 05:52:48;;;;;;;18.63;12.35;;;8.90;95.50;;;;;;5031920;28;20477;-58
2022/03/27 05:55:14;;;;;;;19.95;11.48;;;9.00;95.40;;;;;;5048079;28;20119;-58
2022/03/27 05:57:42;;;;;;;19.02;11.60;;;8.90;95.30;;;;;;5052171;28;20426;-58
2022/03/27 06:00:09;;;;;;;18.70;12.38;;;8.90;95.30;;;;;;5052182;28;20469;-58
2022/03/27 06:02:35;;;;;;;21.20;12.45;;;8.90;95.30;;;;;;5052065;28;20017;-58
2022/03/27 06:05:01;;;;;;;19.20;11.88;;;8.80;95.30;;;;;;5052234;28;20034;-58
2022/03/27 06:07:26;;;;;;;17.35;10.93;;;8.70;95.30;;;;;;5051832;28;20154;-59
2022/03/27 06:09:52;;;;;;;16.88;10.88;;;8.70;95.30;;;;;;5050242;28;20028;-58
2022/03/27 06:12:17;;;;;;;14.65;10.38;;;8.70;95.20;;;;;;5033281;28;20029;-58
2022/03/27 06:14:43;;;;;;;18.95;12.10;;;8.60;95.20;;;;;;5051532;28;20043;-58
2022/03/27 06:17:10;;;;;;;17.70;11.30;;;8.60;95.10;;;;;;5050048;28;20063;-58
2022/03/27 06:19:35;;;;;;;18.73;11.40;;;8.60;95.10;;;;;;5051612;28;20512;-58
2022/03/27 06:22:01;;;;;;;20.45;13.63;;;8.60;95.10;;;;;;5051941;28;20029;-58
2022/03/27 06:24:26;;;;;;;20.92;13.73;;;8.60;95.10;;;;;;5051715;28;20025;-58
2022/03/27 06:26:52;;;;;;;18.20;12.18;;;8.60;95.10;;;;;;5051909;28;20105;-58
2022/03/27 06:29:20;;;;;;;20.10;13.23;;;8.50;95.10;;;;;;5052005;28;20440;-58
2022/03/27 06:31:46;;;;;;;17.55;11.63;;;8.50;95.20;;;;;;5051894;28;20025;-58
2022/03/27 06:34:12;;;;;;;18.08;12.18;;;8.50;95.10;;;;;;5050491;28;20025;-58
2022/03/27 06:36:38;;;;;;;16.23;11.40;;;8.50;95.10;;;;;;5051801;28;20361;-58
2022/03/27 06:39:04;;;;;;;20.70;13.15;;;8.50;95.00;;;;;;5051783;28;20051;-58
2022/03/27 06:41:30;;;;;;;17.98;11.90;;;8.50;95.00;;;;;;5051828;28;20025;-58
2022/03/27 06:43:56;;;;;;;18.25;12.02;;;8.50;95.00;;;;;;5050427;28;20083;-58
2022/03/27 06:46:21;;;;;;;15.80;10.98;;;8.50;95.00;;;;;;5051792;28;20025;-58
2022/03/27 06:48:49;;;;;;;15.75;10.88;;;8.50;95.00;;;;;;5051700;28;20056;-58
2022/03/27 06:51:16;;;;;;;15.70;10.38;;;8.60;95.00;;;;;;5051674;28;20036;-58
2022/03/27 06:53:43;;;;;;;16.17;10.93;;;8.60;94.90;;;;;;5051528;28;20056;-58
2022/03/27 06:56:09;;;;;;;17.67;11.45;;;8.60;94.70;;;;;;5050243;28;20792;-58
2022/03/27 06:58:35;;;;;;;16.10;10.45;;;8.70;94.60;;;;;;5051549;28;20079;-58
2022/03/27 07:03:45;;;;;;;18.48;12.15;;;8.80;94.20;;;;;;5051647;28;20032;-58
2022/03/27 07:06:14;;;;;;;13.73;9.68;;;8.80;94.00;;;;;;5051541;28;20033;-58
2022/03/27 07:08:39;;;;;;;14.82;10.43;;;8.90;93.90;;;;;;5051594;28;20032;-58
2022/03/27 07:11:05;;;;;;;15.10;11.52;;;8.90;93.70;;;;;;5050185;28;20564;-58
2022/03/27 07:13:31;;;;;;;14.27;10.52;;;8.90;93.30;;;;;;5051398;28;20036;-58
2022/03/27 07:15:57;;;;;;;12.75;9.52;;;8.90;93.20;;;;;;5051222;28;20067;-58
2022/03/27 07:18:23;;;;;;;12.50;9.30;;;8.90;93.20;;;;;;5051158;28;20114;-58
2022/03/27 07:20:49;;;;;;;13.02;9.85;;;8.90;93.00;;;;;;5055008;28;20013;-59
2022/03/27 07:23:20;;;;;;;11.23;8.48;;;8.90;93.00;;;;;;5054389;28;20032;-58
2022/03/27 07:25:47;;;;;;;12.25;9.50;;;9.00;92.90;;;;;;5049602;28;20112;-58
2022/03/27 07:28:14;;;;;;;12.75;9.80;;;9.00;92.70;;;;;;5053642;28;20451;-58
2022/03/27 07:30:42;;;;;;;16.35;11.48;;;9.10;92.60;;;;;;5050785;28;20018;-58
2022/03/27 07:33:09;;;;;;;13.98;10.32;;;9.10;92.50;;;;;;5053505;28;20040;-58
2022/03/27 07:35:34;;;;;;;16.33;11.30;;;9.20;92.50;;;;;;5050454;28;20020;-58
2022/03/27 07:38:01;;;;;;;15.23;10.07;;;9.20;92.40;;;;;;5053278;28;20112;-58
2022/03/27 07:40:30;;;;;;;11.95;9.32;;;9.20;92.20;;;;;;5053534;28;20021;-58
2022/03/27 07:42:57;;;;;;;14.70;10.13;;;9.30;92.10;;;;;;5053249;28;20025;-58
2022/03/27 07:45:26;;;;;;;13.93;10.30;;;9.30;91.90;;;;;;5036993;28;20026;-58
2022/03/27 07:47:53;;;;;;;15.38;11.02;;;9.30;91.80;;;;;;5034401;28;20021;-58
2022/03/27 07:50:20;;;;;;;15.05;10.98;;;9.30;91.70;;;;;;5034558;28;20038;-59
2022/03/27 07:52:48;;;;;;;14.43;10.98;;;9.30;91.50;;;;;;5034871;28;20025;-58
2022/03/27 07:55:15;;;;;;;13.23;9.88;;;9.30;91.50;;;;;;5050421;28;20029;-58
2022/03/27 07:57:43;;;;;;;13.55;9.95;;;9.30;91.40;;;;;;5053831;28;20542;-58
2022/03/27 08:00:10;;;;;;;13.55;9.75;;;9.40;91.30;;;;;;5052745;28;20150;-58
2022/03/27 08:02:39;;;;;;;15.05;10.77;;;9.40;91.30;;;;;;5052903;28;20021;-58
2022/03/27 08:05:05;;;;;;;14.38;10.48;;;9.50;91.20;;;;;;5054386;28;20496;-58
2022/03/27 08:07:31;;;;;;;14.15;10.55;;;9.50;91.00;;;;;;5050281;28;20533;-58
2022/03/27 08:09:58;;;;;;;15.52;10.32;;;9.60;90.90;;;;;;5051431;28;20120;-58
2022/03/27 08:12:24;;;;;;;14.02;10.43;;;9.60;90.70;;;;;;5054265;28;20062;-58
2022/03/27 08:14:49;;;;;;;13.95;10.45;;;9.60;90.60;;;;;;5053881;28;20127;-58
2022/03/27 08:17:18;;;;;;;14.18;10.05;;;9.70;90.50;;;;;;5054025;28;20025;-58
2022/03/27 08:19:44;;;;;;;15.55;10.20;;;9.70;90.40;;;;;;5054092;28;20024;-59
2022/03/27 08:22:10;;;;;;;16.17;11.80;;;9.70;90.40;;;;;;5054019;28;20551;-58
2022/03/27 08:24:37;;;;;;;17.27;11.93;;;9.80;90.30;;;;;;5053903;28;20107;-58
2022/03/27 08:27:04;;;;;;;16.17;11.57;;;9.80;90.40;;;;;;5052842;28;20166;-59
2022/03/27 08:29:38;;;;;;;16.55;10.70;;;9.80;90.50;;;;;;5053918;28;20480;-59
2022/03/27 08:32:06;;;;;;;17.88;11.98;;;9.90;90.30;;;;;;5053735;28;20482;-58
2022/03/27 08:34:34;;;;;;;19.38;13.45;;;9.90;90.00;;;;;;5053760;28;20223;-58
2022/03/27 08:37:02;;;;;;;18.90;12.95;;;10.00;89.50;;;;;;5053629;28;20481;-58
2022/03/27 08:39:28;;;;;;;18.55;12.75;;;10.00;89.20;;;;;;5053525;28;20032;-58
2022/03/27 08:41:55;;;;;;;20.45;14.50;;;10.10;89.50;;;;;;5052315;28;20370;-58
2022/03/27 08:44:23;;;;;;;19.05;13.20;;;10.10;88.20;;;;;;5053154;28;20024;-58
2022/03/27 08:46:50;;;;;;;18.80;13.00;;;10.10;88.10;;;;;;5053525;28;20086;-58
2022/03/27 08:49:40;;;;;;;19.67;13.00;;;10.20;88.10;;;;;;5053314;28;20025;-58
2022/03/27 08:52:17;;;;;;;;;;;10.30;87.80;;;;;;5053695;28;20120;-58
2022/03/27 08:54:43;;;;;;;16.90;12.10;;;10.30;87.90;;;;;;5064799;28;19912;-58
2022/03/27 08:57:24;;;;;;;17.60;12.30;;;10.30;87.70;;;;;;5073139;28;20029;-58
2022/03/27 08:59:54;;;;;;;15.35;10.93;;;10.40;87.50;;;;;;5073388;28;20028;-58
2022/03/27 09:02:23;;;;;;;18.15;12.65;;;10.40;86.70;;;;;;5073221;28;20024;-58
2022/03/27 09:04:53;;;;;;;18.20;12.52;;;10.40;86.30;;;;;;5048519;28;20029;-58
2022/03/27 09:07:19;;;;;;;16.02;11.25;;;10.50;86.00;;;;;;5049911;28;20029;-58
2022/03/27 09:09:44;;;;;;;19.10;12.77;;;10.50;85.90;;;;;;5051892;28;20017;-58
2022/03/27 09:12:11;;;;;;;16.83;11.65;;;10.60;85.50;;;;;;5051293;28;20031;-58
2022/03/27 09:14:39;;;;;;;18.20;12.73;;;10.60;85.20;;;;;;5050923;28;20025;-59
2022/03/27 09:17:06;;;;;;;17.90;12.45;;;10.70;84.70;;;;;;5049742;28;20024;-58
2022/03/27 09:19:40;;;;;;;19.95;13.23;;;10.80;84.30;;;;;;5051007;28;20392;-59
2022/03/27 09:22:27;;;;;;;17.33;12.02;;;10.90;83.80;;;;;;5049711;28;20416;-58
2022/03/27 09:24:59;;;;;;;15.70;11.05;;;10.90;83.50;;;;;;5050966;28;20033;-58
2022/03/27 09:27:36;;;;;;;20.70;13.48;;;11.00;83.30;;;;;;5045263;28;20111;-58
2022/03/27 09:30:11;;;;;;;18.35;11.73;;;11.10;82.80;;;;;;5045849;28;20053;-58
2022/03/27 09:32:41;;;;;;;14.95;11.00;;;11.10;82.60;;;;;;5043539;28;20029;-58
2022/03/27 09:35:12;;;;;;;17.45;12.38;;;11.20;82.40;;;;;;5050103;28;20462;-58
2022/03/27 09:37:43;;;;;;;18.75;12.80;;;11.30;82.10;;;;;;5050762;28;20080;-58
2022/03/27 09:40:12;;;;;;;21.75;14.30;;;11.30;81.90;;;;;;5048368;28;20368;-58
2022/03/27 09:42:39;;;;;;;20.20;13.77;;;11.30;81.20;;;;;;5047421;28;20476;-58
2022/03/27 09:45:23;;;;;;;15.88;11.52;;;11.40;80.80;;;;;;5047816;28;20029;-58
2022/03/27 09:47:55;;;;;;;17.40;12.00;;;11.50;80.30;;;;;;5047009;28;20377;-58
2022/03/27 09:50:37;;;;;;;19.95;12.48;;;11.60;79.60;;;;;;5046791;28;20416;-58
2022/03/27 09:53:22;;;;;;;21.55;11.82;;;11.70;78.50;;;;;;5045632;28;20024;-58
2022/03/27 09:56:00;;;;;;;18.00;12.77;;;11.80;78.10;;;;;;5047069;28;20032;-58
2022/03/27 09:58:46;;;;;;;16.95;12.25;;;11.90;77.90;;;;;;5032342;28;20104;-58
2022/03/27 10:01:20;;;;;;;15.55;11.27;;;12.00;77.30;;;;;;5032275;28;20032;-58
2022/03/27 10:04:13;;;;;;;18.35;11.65;;;12.10;76.90;;;;;;5032288;28;20385;-58
2022/03/27 10:06:40;;;;;;;16.45;11.90;;;12.30;76.50;;;;;;5032114;28;20021;-58
2022/03/27 10:09:13;;;;;;;17.92;10.82;;;12.40;75.80;;;;;;5051345;28;20033;-58
2022/03/27 10:11:41;;;;;;;15.18;11.15;;;12.60;75.30;;;;;;5048462;28;20036;-58
2022/03/27 10:14:08;;;;;;;17.65;11.25;;;12.80;74.60;;;;;;5047777;28;20025;-58
2022/03/27 10:16:47;;;;;;;13.70;10.30;;;12.90;74.00;;;;;;5046950;28;20025;-58
2022/03/27 10:19:31;;;;;;;14.18;9.88;;;13.20;73.40;;;;;;5048146;28;20067;-58
2022/03/27 10:21:58;;;;;;;14.70;10.52;;;13.30;72.50;;;;;;5046941;28;20045;-58
2022/03/27 10:24:30;;;;;;;18.00;10.73;;;13.50;72.20;;;;;;5044224;28;20079;-58
2022/03/27 10:26:59;;;;;;;12.15;9.68;;;13.70;71.10;;;;;;5045654;28;20037;-58
2022/03/27 10:29:25;;;;;;;13.33;8.97;;;13.90;70.60;;;;;;5047205;28;20508;-58
2022/03/27 10:31:56;;;;;;;15.43;9.73;;;14.10;70.10;;;;;;5050246;28;20017;-58
2022/03/27 10:34:23;;;;;;;13.30;9.45;;;14.30;69.70;;;;;;5049004;28;20071;-58
2022/03/27 10:36:52;;;;;;;12.98;8.73;;;14.50;66.40;;;;;;5047108;28;20053;-58
2022/03/27 10:39:28;;;;;;;12.18;8.13;;;14.80;66.00;;;;;;5047398;28;20502;-58
2022/03/27 10:42:11;;;;;;;11.27;8.30;;;15.10;65.60;;;;;;5033800;28;20017;-58
2022/03/27 10:44:44;;;;;;;10.50;7.22;;;15.40;64.80;;;;;;5030844;28;20035;-58
2022/03/27 10:47:14;;;;;;;14.38;9.55;;;15.70;64.60;;;;;;5028887;28;20026;-58
2022/03/27 10:49:41;;;;;;;11.02;8.32;;;16.20;61.60;;;;;;5040391;28;20105;-58
2022/03/27 10:52:08;;;;;;;11.45;7.95;;;16.60;61.00;;;;;;5035725;28;20117;-58
2022/03/27 10:55:19;;;;;;;9.43;6.35;;;17.20;59.60;;;;;;5043127;28;20056;-58
2022/03/27 10:57:51;;;;;;;10.35;7.30;;;17.90;58.60;;;;;;5036904;28;20068;-59
2022/03/27 11:00:37;;;;;;;9.98;6.80;;;18.70;57.20;;;;;;5038508;28;20075;-58
2022/03/27 11:03:03;;;;;;;7.85;6.40;;;19.70;56.90;;;;;;5039590;28;20074;-59
2022/03/27 11:05:31;;;;;;;6.88;5.60;;;20.50;56.70;;;;;;5034926;28;20040;-59
2022/03/27 11:08:18;;;;;;;7.60;5.82;;;22.50;55.20;;;;;;5040427;28;20033;-59
2022/03/27 11:10:49;;;;;;;9.15;6.18;;;25.90;50.10;;;;;;5034493;28;20489;-59
2022/03/27 11:13:27;;;;;;;5.35;4.75;;;28.30;43.00;;;;;;5034407;28;20249;-59
2022/03/27 11:16:10;;;;;;;6.53;5.45;;;30.90;41.30;;;;;;5036688;28;20120;-59
2022/03/27 11:18:45;;;;;;;5.90;5.28;;;32.60;37.20;;;;;;5031473;28;20025;-60
2022/03/27 11:21:13;;;;;;;6.15;5.28;;;34.10;36.60;;;;;;5031440;28;20026;-59
2022/03/27 11:23:41;;;;;;;6.38;5.00;;;35.60;34.60;;;;;;5037489;28;20021;-60
2022/03/27 11:26:29;;;;;;;7.25;6.35;;;37.00;30.90;;;;;;5039261;28;20497;-60
2022/03/27 11:29:15;;;;;;;6.18;5.57;;;38.00;30.00;;;;;;5041084;28;20299;-60
2022/03/27 11:31:41;;;;;;;4.40;4.00;;;39.40;29.50;;;;;;5037511;28;20120;-60
2022/03/27 11:34:09;;;;;;;6.45;5.72;;;40.50;29.00;;;;;;5034234;28;20120;-60
2022/03/27 11:36:36;;;;;;;6.05;5.47;;;41.40;27.70;;;;;;5030981;28;20437;-60
2022/03/27 11:39:30;;;;;;;8.15;5.65;;;42.40;27.60;;;;;;5039001;28;20492;-60
2022/03/27 11:42:45;;;;;;;6.03;5.35;;;42.90;26.80;;;;;;5034011;28;20025;-60
2022/03/27 11:45:20;;;;;;;6.63;5.22;;;43.90;27.00;;;;;;5034070;28;20041;-60
2022/03/27 11:47:51;;;;;;;5.22;4.70;;;44.70;26.50;;;;;;5035666;28;20108;-60
2022/03/27 11:50:23;;;;;;;6.05;4.85;;;45.70;26.30;;;;;;5034397;28;20498;-60
2022/03/27 11:52:49;;;;;;;5.78;5.32;;;46.30;25.60;;;;;;5041460;28;20068;-60
2022/03/27 11:55:15;;;;;;;5.03;4.63;;;46.60;25.10;;;;;;5037227;28;20432;-60
2022/03/27 11:57:47;;;;;;;5.15;4.65;;;47.00;25.10;;;;;;5037530;28;20049;-60
2022/03/27 12:00:14;;;;;;;4.85;4.35;;;47.00;24.10;;;;;;5045688;28;20116;-60
2022/03/27 12:02:45;;;;;;;5.18;4.72;;;47.00;24.30;;;;;;5036438;28;20071;-60
2022/03/27 12:05:14;;;;;;;5.40;4.55;;;47.50;24.40;;;;;;5032901;28;20033;-61
2022/03/27 12:07:57;;;;;;;5.22;4.72;;;48.20;24.20;;;;;;5035893;28;20383;-60
2022/03/27 12:10:24;;;;;;;4.65;4.25;;;48.70;24.00;;;;;;5033598;28;20514;-60
2022/03/27 12:13:02;;;;;;;6.93;5.10;;;49.00;23.80;;;;;;5035956;28;20535;-61
2022/03/27 12:15:41;;;;;;;5.18;4.68;;;49.10;23.60;;;;;;5038125;28;20052;-60
2022/03/27 12:18:07;;;;;;;5.25;4.75;;;49.30;23.40;;;;;;5035603;28;20032;-61
2022/03/27 12:20:44;;;;;;;4.35;3.95;;;49.50;23.20;;;;;;5036222;28;20503;-61
2022/03/27 12:23:24;;;;;;;4.63;4.30;;;49.50;22.70;;;;;;5045807;28;20502;-61
2022/03/27 12:32:25;;;;;;;4.90;4.40;;;49.40;22.80;;;;;;5030428;28;20052;-61
2022/03/27 12:34:53;;;;;;;4.63;4.22;;;49.10;22.20;;;;;;5030137;28;20017;-60
2022/03/27 12:37:24;;;;;;;4.20;3.80;;;48.70;22.50;;;;;;5029594;28;20029;-60
2022/03/27 12:39:50;;;;;;;4.95;4.45;;;49.00;22.70;;;;;;5041448;28;20388;-61
2022/03/27 12:42:35;;;;;;;4.00;3.70;;;49.30;22.70;;;;;;5036022;28;20018;-60
2022/03/27 12:45:06;;;;;;;5.10;4.32;;;49.40;22.60;;;;;;5033165;28;20029;-61
2022/03/27 12:47:44;;;;;;;4.28;3.88;;;49.00;22.40;;;;;;5040290;28;20397;-61
2022/03/27 12:50:13;;;;;;;4.50;4.10;;;48.90;22.50;;;;;;5031452;28;20031;-61
2022/03/27 12:52:55;;;;;;;4.00;3.60;;;48.20;22.10;;;;;;5039346;28;20020;-61
2022/03/27 12:55:23;;;;;;;6.32;4.07;;;47.80;22.40;;;;;;5036792;28;20043;-60
2022/03/27 12:57:57;;;;;;;3.80;3.50;;;47.60;22.50;;;;;;5043481;28;20013;-60
2022/03/27 13:00:30;;;;;;;4.80;4.30;;;47.30;22.20;;;;;;5041363;28;20096;-61
2022/03/27 13:03:16;;;;;;;4.18;3.78;;;46.60;22.50;;;;;;5038732;28;20097;-61